CYBW/YBW METAR and TAF weather

Enter ICAO airport designator
Station Type Date Time Source
CYBW METAR 2023/12/11 00:00 UTC NOAA

CYBW 110000Z AUTO 31007KT 290V350 9SM BKN190 OVC210 03/M04 A2983 RMK SLP140


Station Type Date Time Source
CYBW Decoded METAR 2023/12/11 00:00 UTC NOAA

Calgary / Springbank, Canada (CYBW) 51-06N 114-22W
Dec 10, 2023 - 07:00 PM EST / 2023.12.11 0000 UTC
Wind: from the NW (310 degrees) at 8 MPH (7 KT) (direction variable):0
Visibility: 9 mile(s):0
Sky conditions: overcast
Temperature: 37 F (3 C)
Dew Point: 24 F (-4 C)
Relative Humidity: 59%
Pressure (altimeter): 29.83 in. Hg (1010 hPa)
ob: CYBW 110000Z AUTO 31007KT 290V350 9SM BKN190 OVC210 03/M04 A2983 RMK SLP140
cycle: 0

Station Type Date Time Source
CYBW TAF 2023/12/10 18:00 UTC NOAA

TAF CYBW 101740Z 1018/1105 29012G22KT P6SM FEW060
BECMG 1100/1102 20012KT
FM110300 29010KT P6SM BKN080
RMK FCST BASED ON AUTO OBS. NXT FCST BY 110000Z

Example: see airport list